createdAt,value
2018-11-01T00:01:21.863Z,95299.00
2018-11-01T00:06:51.349Z,95293.00
2018-11-01T00:12:20.797Z,95294.00
2018-11-01T00:17:50.315Z,95290.00
2018-11-01T00:23:19.700Z,95278.00
2018-11-01T00:28:49.206Z,95295.00
2018-11-01T00:34:18.549Z,95311.00
2018-11-01T00:39:48.159Z,95305.00
2018-11-01T00:45:17.553Z,95296.00
2018-11-01T00:50:46.879Z,95293.00
2018-11-01T00:56:16.244Z,95302.00
2018-11-01T01:01:45.633Z,95295.00
2018-11-01T01:07:14.999Z,95283.00
2018-11-01T01:12:45.930Z,95283.00
2018-11-01T01:18:15.403Z,95260.00
2018-11-01T01:23:44.828Z,95241.00
2018-11-01T01:29:14.184Z,95214.00
2018-11-01T01:34:43.567Z,95214.00
2018-11-01T01:40:13.037Z,95229.00
2018-11-01T01:45:42.511Z,95224.00
2018-11-01T01:51:12.035Z,95249.00
2018-11-01T01:56:41.390Z,95266.00
2018-11-01T02:02:10.713Z,95263.00
2018-11-01T02:07:40.201Z,95250.00
2018-11-01T02:13:09.654Z,95249.00
2018-11-01T02:18:39.629Z,95251.00
2018-11-01T02:24:09.884Z,95234.00
2018-11-01T02:29:39.300Z,95253.00
2018-11-01T02:35:10.195Z,95212.00
2018-11-01T02:40:39.532Z,95229.00
2018-11-01T02:46:08.918Z,95230.00
2018-11-01T02:51:38.275Z,95219.00
2018-11-01T02:57:07.640Z,95204.00
2018-11-01T03:02:37.095Z,95190.00
2018-11-01T03:08:06.610Z,95183.00
2018-11-01T03:13:36.270Z,95188.00
2018-11-01T03:19:06.426Z,95202.00
2018-11-01T03:24:35.904Z,95179.00
2018-11-01T03:30:05.925Z,95162.00
2018-11-01T03:35:35.353Z,95165.00
2018-11-01T03:41:04.905Z,95169.00
2018-11-01T03:46:34.349Z,95148.00
2018-11-01T03:52:03.842Z,95139.00
2018-11-01T03:57:33.029Z,95174.00
2018-11-01T04:03:02.473Z,95168.00
2018-11-01T04:08:31.859Z,95152.00
2018-11-01T04:14:01.254Z,95153.00
2018-11-01T04:19:30.590Z,95149.00
2018-11-01T04:25:00.019Z,95129.00
2018-11-01T04:30:29.298Z,95129.00
2018-11-01T04:35:58.608Z,95120.00
2018-11-01T04:41:28.776Z,95110.00
2018-11-01T04:46:58.087Z,95115.00
2018-11-01T04:52:27.320Z,95109.00
2018-11-01T04:57:56.613Z,95106.00
2018-11-01T05:03:25.969Z,95071.00
2018-11-01T05:08:55.251Z,95067.00
2018-11-01T05:14:24.470Z,95062.00
2018-11-01T05:19:53.708Z,95049.00
2018-11-01T05:25:22.987Z,95038.00
2018-11-01T05:30:52.205Z,95020.00
2018-11-01T05:36:22.514Z,95026.00
2018-11-01T05:41:51.956Z,95025.00
2018-11-01T05:47:21.155Z,95023.00
2018-11-01T05:52:50.486Z,95018.00
2018-11-01T05:58:20.171Z,95001.00
2018-11-01T06:03:49.401Z,94992.00
2018-11-01T06:09:23.813Z,95000.00
2018-11-01T06:14:53.100Z,95004.00
2018-11-01T06:20:23.544Z,94981.00
2018-11-01T06:25:52.882Z,94999.00
2018-11-01T06:31:22.201Z,94998.00
2018-11-01T06:36:51.532Z,94989.00
2018-11-01T06:42:20.982Z,94999.00
2018-11-01T06:47:50.205Z,94977.00
2018-11-01T06:53:19.512Z,94978.00
2018-11-01T06:58:48.805Z,95004.00
2018-11-01T07:04:18.072Z,95004.00
2018-11-01T07:09:47.418Z,95002.00
2018-11-01T07:15:17.178Z,95009.00
2018-11-01T07:20:46.444Z,95021.00
2018-11-01T07:26:15.838Z,95049.00
2018-11-01T07:31:44.893Z,95039.00
2018-11-01T07:37:14.215Z,95023.00
2018-11-01T07:42:43.536Z,95026.00
2018-11-01T07:48:12.784Z,95031.00
2018-11-01T07:53:41.981Z,95007.00
2018-11-01T07:59:11.201Z,95017.00
2018-11-01T08:04:40.511Z,94999.00
2018-11-01T08:10:12.761Z,95033.00
2018-11-01T08:15:42.006Z,95014.00
2018-11-01T08:21:11.581Z,95021.00
2018-11-01T08:26:40.639Z,95005.00
2018-11-01T08:32:09.856Z,94990.00
2018-11-01T08:37:39.528Z,95000.00
2018-11-01T08:43:08.973Z,94977.00
2018-11-01T08:48:38.259Z,94969.00
2018-11-01T08:54:07.653Z,94975.00
2018-11-01T08:59:38.117Z,94984.00
2018-11-01T09:05:08.787Z,94985.00
2018-11-01T09:10:38.160Z,94986.00
2018-11-01T09:16:07.449Z,94993.00
2018-11-01T09:21:36.812Z,95011.00
2018-11-01T09:27:06.930Z,94998.00
2018-11-01T09:32:37.317Z,94996.00
2018-11-01T09:38:06.777Z,94990.00
2018-11-01T09:43:36.073Z,95019.00
2018-11-01T09:49:05.710Z,95026.00
2018-11-01T09:54:35.052Z,95020.00
2018-11-01T10:00:05.142Z,95021.00
2018-11-01T10:05:34.395Z,95051.00
2018-11-01T10:11:04.487Z,95071.00
2018-11-01T10:16:34.715Z,95083.00
2018-11-01T10:22:04.133Z,95102.00
2018-11-01T10:27:34.635Z,95074.00
2018-11-01T10:33:06.153Z,95054.00
2018-11-01T10:38:35.538Z,95049.00
2018-11-01T10:44:05.634Z,95058.00
2018-11-01T10:49:35.209Z,95010.00
2018-11-01T10:55:04.740Z,95028.00
2018-11-01T11:00:39.500Z,95014.00
2018-11-01T11:06:09.276Z,94996.00
2018-11-01T11:11:38.532Z,94998.00
2018-11-01T11:17:08.823Z,94983.00
2018-11-01T11:22:38.225Z,94993.00
2018-11-01T11:28:07.606Z,94962.00
2018-11-01T11:33:36.853Z,94985.00
2018-11-01T11:39:11.152Z,94975.00
2018-11-01T11:44:40.586Z,94967.00
2018-11-01T11:50:11.476Z,94964.00
2018-11-01T11:55:40.861Z,94981.00
2018-11-01T12:01:10.241Z,94996.00
2018-11-01T12:06:39.549Z,94994.00
2018-11-01T12:12:08.988Z,94991.00
2018-11-01T12:17:39.583Z,95005.00
2018-11-01T12:23:09.203Z,95009.00
2018-11-01T12:28:38.586Z,95005.00
2018-11-01T12:34:07.847Z,95017.00
2018-11-01T12:39:37.110Z,95013.00
2018-11-01T12:45:08.395Z,95021.00
2018-11-01T12:50:37.664Z,95031.00
2018-11-01T12:56:07.082Z,95041.00
2018-11-01T13:01:36.412Z,95038.00
2018-11-01T13:07:06.188Z,95043.00
2018-11-01T13:12:35.617Z,95052.00
2018-11-01T13:18:05.267Z,95060.00
2018-11-01T13:23:35.030Z,95062.00
2018-11-01T13:29:04.525Z,95085.00
2018-11-01T13:34:33.907Z,95081.00
2018-11-01T13:40:03.505Z,95081.00
2018-11-01T13:45:32.628Z,95073.00
2018-11-01T13:51:02.283Z,95075.00
2018-11-01T13:56:31.897Z,95096.00
2018-11-01T14:02:01.302Z,95110.00
2018-11-01T14:07:30.649Z,95125.00
2018-11-01T14:12:59.907Z,95105.00
2018-11-01T14:18:29.636Z,95113.00
2018-11-01T14:23:59.031Z,95130.00
2018-11-01T14:29:28.585Z,95120.00
2018-11-01T14:34:58.162Z,95138.00
2018-11-01T14:40:27.845Z,95131.00
2018-11-01T14:45:57.698Z,95143.00
2018-11-01T14:51:27.293Z,95166.00
2018-11-01T14:57:01.021Z,95175.00
2018-11-01T15:02:28.373Z,95202.00
2018-11-01T15:07:57.820Z,95204.00
2018-11-01T15:13:27.210Z,95196.00
2018-11-01T15:18:56.686Z,95205.00
2018-11-01T15:24:26.107Z,95207.00
2018-11-01T15:29:56.344Z,95213.00
2018-11-01T15:35:26.928Z,95217.00
2018-11-01T15:41:01.028Z,95225.00
2018-11-01T15:46:30.559Z,95224.00
2018-11-01T15:52:00.206Z,95241.00
2018-11-01T15:57:29.912Z,95238.00
2018-11-01T16:02:59.287Z,95243.00
2018-11-01T16:08:29.696Z,95244.00
2018-11-01T16:13:59.435Z,95257.00
2018-11-01T16:19:28.865Z,95262.00
2018-11-01T16:24:58.533Z,95277.00
2018-11-01T16:30:28.195Z,95278.00
2018-11-01T16:35:57.966Z,95287.00
2018-11-01T16:41:27.611Z,95280.00
2018-11-01T16:46:57.416Z,95281.00
2018-11-01T16:52:27.184Z,95293.00
2018-11-01T16:57:57.292Z,95296.00
2018-11-01T17:03:26.601Z,95313.00
2018-11-01T17:08:56.855Z,95325.00
2018-11-01T17:14:26.373Z,95319.00
2018-11-01T17:19:55.860Z,95334.00
2018-11-01T17:25:25.217Z,95331.00
2018-11-01T17:30:54.445Z,95337.00
2018-11-01T17:36:23.905Z,95348.00
2018-11-01T17:41:53.344Z,95375.00
2018-11-01T17:47:22.840Z,95374.00
2018-11-01T17:52:52.172Z,95394.00
2018-11-01T17:58:21.537Z,95410.00
2018-11-01T18:03:51.589Z,95403.00
2018-11-01T18:09:21.407Z,95408.00
2018-11-01T18:14:50.829Z,95415.00
2018-11-01T18:20:20.429Z,95422.00
2018-11-01T18:25:50.947Z,95428.00
2018-11-01T18:31:20.717Z,95440.00
2018-11-01T18:36:50.216Z,95447.00
2018-11-01T18:42:20.018Z,95434.00
2018-11-01T18:47:49.457Z,95443.00
2018-11-01T18:53:18.938Z,95461.00
2018-11-01T18:58:48.485Z,95454.00
2018-11-01T19:04:17.862Z,95464.00
2018-11-01T19:09:47.229Z,95467.00
2018-11-01T19:15:17.013Z,95468.00
2018-11-01T19:20:46.336Z,95480.00
2018-11-01T19:26:15.687Z,95505.00
2018-11-01T19:31:45.104Z,95524.00
2018-11-01T19:37:14.649Z,95551.00
2018-11-01T19:42:44.840Z,95567.00
2018-11-01T19:48:14.412Z,95555.00
2018-11-01T19:53:43.940Z,95577.00
2018-11-01T19:59:13.488Z,95571.00
2018-11-01T20:04:42.870Z,95579.00
2018-11-01T20:10:13.579Z,95586.00
2018-11-01T20:15:43.581Z,95598.00
2018-11-01T20:21:13.050Z,95600.00
2018-11-01T20:26:42.463Z,95628.00
2018-11-01T20:32:11.997Z,95636.00
2018-11-01T20:37:42.744Z,95641.00
2018-11-01T20:43:12.729Z,95643.00
2018-11-01T20:48:43.195Z,95651.00
2018-11-01T20:54:12.772Z,95669.00
2018-11-01T20:59:42.518Z,95690.00
2018-11-01T21:05:12.375Z,95672.00
2018-11-01T21:10:41.957Z,95697.00
2018-11-01T21:16:12.988Z,95703.00
2018-11-01T21:21:43.819Z,95699.00
2018-11-01T21:27:14.001Z,95722.00
2018-11-01T21:32:43.414Z,95726.00
2018-11-01T21:38:14.557Z,95742.00
2018-11-01T21:43:44.412Z,95742.00
2018-11-01T21:49:14.752Z,95745.00
2018-11-01T21:54:44.102Z,95739.00
2018-11-01T22:00:14.044Z,95731.00
2018-11-01T22:05:43.439Z,95731.00
2018-11-01T22:11:13.365Z,95742.00
2018-11-01T22:16:42.709Z,95749.00
2018-11-01T22:22:12.192Z,95767.00
2018-11-01T22:27:41.744Z,95778.00
2018-11-01T22:33:11.041Z,95773.00
2018-11-01T22:38:40.416Z,95787.00
2018-11-01T22:44:10.098Z,95815.00
2018-11-01T22:49:40.057Z,95821.00
2018-11-01T22:55:10.692Z,95807.00
2018-11-01T23:00:44.057Z,95806.00
2018-11-01T23:06:13.660Z,95805.00
2018-11-01T23:11:43.652Z,95815.00
2018-11-01T23:17:14.418Z,95810.00
2018-11-01T23:22:43.727Z,95806.00
2018-11-01T23:28:12.992Z,95820.00
2018-11-01T23:33:42.505Z,95813.00
2018-11-01T23:39:17.036Z,95812.00
2018-11-01T23:44:51.652Z,95823.00
2018-11-01T23:50:25.208Z,95834.00
2018-11-01T23:55:54.554Z,95836.00
